Time;durP1;ratioP1;P1;durP2;ratioP2;P2;SDS_P1;SDS_P2;PMS_P1;PMS_P2;Temp;Humidity;BMP_temperature;BMP_pressure;BME280_temperature;BME280_humidity;BME280_pressure;Samples;Min_cycle;Max_cycle;Signal;HPM_P1;HPM_P2
2024/01/07 00:01:36;;;;;;;;;;;4.80;99.90;;;;;;5016609;28;19929;-66
2024/01/07 00:04:04;;;;;;;;;;;4.90;99.90;;;;;;5018408;28;20396;-65
2024/01/07 00:06:33;;;;;;;;;;;4.80;99.90;;;;;;5020138;28;19929;-66
2024/01/07 00:09:01;;;;;;;;;;;4.80;99.90;;;;;;5019128;28;19935;-66
2024/01/07 00:11:29;;;;;;;;;;;4.90;99.90;;;;;;5016421;28;20397;-67
2024/01/07 00:13:57;;;;;;;;;;;4.90;99.90;;;;;;5018205;28;20838;-67
2024/01/07 00:16:24;;;;;;;;;;;4.90;99.90;;;;;;5019516;28;19929;-67
2024/01/07 00:18:52;;;;;;;;;;;4.90;99.90;;;;;;5019573;28;19966;-67
2024/01/07 00:21:21;;;;;;;;;;;4.90;99.90;;;;;;4998642;28;20280;-66
2024/01/07 00:23:50;;;;;;;;;;;4.80;99.90;;;;;;5018519;28;19983;-67
2024/01/07 00:26:17;;;;;;;;;;;4.90;99.90;;;;;;5018942;28;19929;-67
2024/01/07 00:28:45;;;;;;;;;;;4.90;99.90;;;;;;5000446;28;19929;-68
2024/01/07 00:31:13;;;;;;;;;;;4.90;99.90;;;;;;5016654;28;20717;-67
2024/01/07 00:33:41;;;;;;;;;;;4.90;99.90;;;;;;5017587;28;19967;-68
2024/01/07 00:36:09;;;;;;;;;;;4.90;99.90;;;;;;5023016;28;19921;-66
2024/01/07 00:38:37;;;;;;;;;;;4.90;99.90;;;;;;5039548;28;20019;-66
2024/01/07 00:41:06;;;;;;;;;;;5.30;99.90;;;;;;5035098;28;19935;-66
2024/01/07 00:43:34;;;;;;;;;;;6.00;99.90;;;;;;5036169;28;19951;-66
2024/01/07 00:46:02;;;;;;;;;;;6.70;99.90;;;;;;5021454;28;19921;-66
2024/01/07 00:48:30;;;;;;;;;;;6.50;99.90;;;;;;5040542;28;19982;-66
2024/01/07 00:50:59;;;;;;;;;;;6.50;99.90;;;;;;5036444;28;19924;-66
2024/01/07 00:53:26;;;;;;;;;;;6.50;99.90;;;;;;5015491;28;19925;-66
2024/01/07 00:55:54;;;;;;;;;;;6.50;99.90;;;;;;5035195;28;19921;-65
2024/01/07 00:58:23;;;;;;;;;;;6.30;99.90;;;;;;5039623;28;20371;-65
2024/01/07 01:00:53;;;;;;;;;;;6.30;99.90;;;;;;5019191;28;19920;-66
2024/01/07 01:03:22;;;;;;;;;;;6.00;99.90;;;;;;5038521;28;19944;-66
2024/01/07 01:05:50;;;;;;;;;;;5.80;99.90;;;;;;5032268;28;19921;-66
2024/01/07 01:08:18;;;;;;;;;;;5.70;99.90;;;;;;5032759;28;19929;-66
2024/01/07 01:10:46;;;;;;;;;;;5.60;99.90;;;;;;5033904;28;19944;-67
2024/01/07 01:13:13;;;;;;;;;;;5.60;99.90;;;;;;5034374;28;20376;-67
2024/01/07 01:15:43;;;;;;;;;;;5.40;99.90;;;;;;5053270;28;19927;-65
2024/01/07 01:18:11;;;;;;;;;;;5.30;99.90;;;;;;5050840;28;20015;-66
2024/01/07 01:20:39;;;;;;;;;;;5.30;99.90;;;;;;5027736;28;19925;-65
2024/01/07 01:23:07;;;;;;;;;;;5.30;99.90;;;;;;5053359;28;19929;-66
2024/01/07 01:25:35;;;;;;;;;;;5.30;99.90;;;;;;5053483;28;19924;-65
2024/01/07 01:28:03;;;;;;;;;;;5.40;99.90;;;;;;5035332;28;20364;-66
2024/01/07 01:30:31;;;;;;;;;;;5.30;99.90;;;;;;5052793;28;20403;-66
2024/01/07 01:33:02;;;;;;;;;;;5.30;99.90;;;;;;5052330;28;19921;-65
2024/01/07 01:35:30;;;;;;;;;;;5.50;99.90;;;;;;5015873;28;20357;-66
2024/01/07 01:37:58;;;;;;;;;;;5.40;99.90;;;;;;5041413;28;19920;-65
2024/01/07 01:40:25;;;;;;;;;;;5.40;99.90;;;;;;5052773;28;19920;-66
2024/01/07 01:42:53;;;;;;;;;;;5.40;99.90;;;;;;5053272;28;19963;-66
2024/01/07 01:45:21;;;;;;;;;;;5.60;99.90;;;;;;5034968;28;19924;-67
2024/01/07 01:47:49;;;;;;;;;;;5.80;99.90;;;;;;5045978;28;19928;-65
2024/01/07 01:50:19;;;;;;;;;;;5.90;99.90;;;;;;5019190;28;19929;-65
2024/01/07 01:52:47;;;;;;;;;;;5.90;99.90;;;;;;5034817;28;19928;-65
2024/01/07 01:55:15;;;;;;;;;;;5.80;99.90;;;;;;5052619;28;19927;-66
2024/01/07 01:57:44;;;;;;;;;;;5.80;99.90;;;;;;5052911;28;20387;-66
2024/01/07 02:00:13;;;;;;;;;;;5.90;99.90;;;;;;5052086;28;19921;-66
2024/01/07 02:02:41;;;;;;;;;;;5.90;99.90;;;;;;5051517;28;20363;-65
2024/01/07 02:05:08;;;;;;;;;;;5.70;99.90;;;;;;5040122;28;19927;-67
2024/01/07 02:07:38;;;;;;;;;;;5.60;99.90;;;;;;5046189;28;19924;-67
2024/01/07 02:10:06;;;;;;;;;;;5.60;99.90;;;;;;5034010;28;20350;-66
2024/01/07 02:12:34;;;;;;;;;;;5.60;99.90;;;;;;5052208;28;19947;-65
2024/01/07 02:15:02;;;;;;;;;;;5.60;99.90;;;;;;5051055;28;19921;-65
2024/01/07 02:17:30;;;;;;;;;;;5.70;99.90;;;;;;5052592;28;19932;-68
2024/01/07 02:19:58;;;;;;;;;;;5.80;99.90;;;;;;5033878;28;20380;-66
2024/01/07 02:22:26;;;;;;;;;;;5.60;99.90;;;;;;5043994;28;19920;-67
2024/01/07 02:24:55;;;;;;;;;;;5.60;99.90;;;;;;5052159;28;20023;-65
2024/01/07 02:27:23;;;;;;;;;;;5.80;99.90;;;;;;5052221;28;19920;-66
2024/01/07 02:29:51;;;;;;;;;;;5.80;99.90;;;;;;5049947;28;20350;-67
2024/01/07 02:32:19;;;;;;;;;;;5.90;99.90;;;;;;5034192;28;19921;-67
2024/01/07 02:34:47;;;;;;;;;;;5.80;99.90;;;;;;5043512;28;19925;-66
2024/01/07 02:37:16;;;;;;;;;;;5.70;99.90;;;;;;5042138;28;20368;-66
2024/01/07 02:39:44;;;;;;;;;;;5.60;99.90;;;;;;5051712;28;19939;-66
2024/01/07 02:42:24;;;;;;;;;;;5.70;99.90;;;;;;5051975;28;19929;-66
2024/01/07 02:44:52;;;;;;;;;;;5.50;99.90;;;;;;5049428;28;20016;-66
2024/01/07 02:47:20;;;;;;;;;;;5.60;99.90;;;;;;5051586;28;19928;-67
2024/01/07 02:49:48;;;;;;;;;;;5.50;99.90;;;;;;5051536;28;19924;-66
2024/01/07 02:52:16;;;;;;;;;;;5.60;99.90;;;;;;5051881;28;20299;-66
2024/01/07 02:54:44;;;;;;;;;;;5.50;99.90;;;;;;5051857;28;19921;-66
2024/01/07 02:57:12;;;;;;;;;;;5.50;99.90;;;;;;5049241;28;19979;-67
2024/01/07 02:59:41;;;;;;;;;;;5.50;99.90;;;;;;5051367;28;19920;-67
2024/01/07 03:02:09;;;;;;;;;;;5.50;99.90;;;;;;5025607;28;19928;-66
2024/01/07 03:04:36;;;;;;;;;;;5.60;99.90;;;;;;5047869;28;20016;-66
2024/01/07 03:07:04;;;;;;;;;;;5.50;99.90;;;;;;5017277;28;19921;-68
2024/01/07 03:09:32;;;;;;;;;;;5.60;99.90;;;;;;5033714;28;20003;-66
2024/01/07 03:12:01;;;;;;;;;;;5.70;99.90;;;;;;5048782;28;19976;-66
2024/01/07 03:14:29;;;;;;;;;;;5.80;99.90;;;;;;5051536;28;20375;-67
2024/01/07 03:16:58;;;;;;;;;;;5.60;99.90;;;;;;5051893;28;19931;-67
2024/01/07 03:19:26;;;;;;;;;;;5.60;99.90;;;;;;5051026;28;19924;-67
2024/01/07 03:21:54;;;;;;;;;;;5.80;99.90;;;;;;5050857;28;20219;-66
2024/01/07 03:24:22;;;;;;;;;;;5.50;99.90;;;;;;5044211;28;20358;-66
2024/01/07 03:26:50;;;;;;;;;;;5.40;99.90;;;;;;5048185;28;20007;-66
2024/01/07 03:29:18;;;;;;;;;;;5.30;99.90;;;;;;5033127;28;19925;-67
2024/01/07 03:31:46;;;;;;;;;;;5.30;99.90;;;;;;5050807;28;19927;-66
2024/01/07 03:34:15;;;;;;;;;;;5.20;99.90;;;;;;5038675;28;19920;-66
2024/01/07 03:36:44;;;;;;;;;;;5.10;99.90;;;;;;5036102;28;19920;-66
2024/01/07 03:39:12;;;;;;;;;;;5.10;99.90;;;;;;5051028;28;20023;-65
2024/01/07 03:41:40;;;;;;;;;;;5.20;99.90;;;;;;5050420;28;19959;-66
2024/01/07 03:44:08;;;;;;;;;;;5.30;99.90;;;;;;5050860;28;19920;-65
2024/01/07 03:46:35;;;;;;;;;;;5.40;99.90;;;;;;5049055;28;19927;-65
2024/01/07 03:49:03;;;;;;;;;;;5.40;99.90;;;;;;5046969;28;20011;-65
2024/01/07 03:51:33;;;;;;;;;;;5.40;99.90;;;;;;5050183;28;19921;-65
2024/01/07 03:54:01;;;;;;;;;;;5.30;99.90;;;;;;5050451;28;20291;-64
2024/01/07 03:56:29;;;;;;;;;;;5.40;99.90;;;;;;5032834;28;20864;-66
2024/01/07 03:58:56;;;;;;;;;;;5.30;99.90;;;;;;5050940;28;19921;-65
2024/01/07 04:01:24;;;;;;;;;;;5.20;99.90;;;;;;5043479;28;20451;-66
2024/01/07 04:03:52;;;;;;;;;;;5.20;99.90;;;;;;5048427;28;19927;-66
2024/01/07 04:06:21;;;;;;;;;;;5.20;99.90;;;;;;5032098;28;19920;-66
2024/01/07 04:08:50;;;;;;;;;;;5.10;99.90;;;;;;5032959;28;19928;-66
2024/01/07 04:11:18;;;;;;;;;;;5.10;99.90;;;;;;5053449;28;19927;-66
2024/01/07 04:13:46;;;;;;;;;;;5.00;99.90;;;;;;5036603;28;20444;-66
2024/01/07 04:16:17;;;;;;;;;;;5.00;99.90;;;;;;5048113;28;20429;-67
2024/01/07 04:18:45;;;;;;;;;;;5.20;99.90;;;;;;5036790;28;19943;-66
2024/01/07 04:21:17;;;;;;;;;;;5.20;99.90;;;;;;5035916;28;19925;-68
2024/01/07 04:23:45;;;;;;;;;;;5.10;99.90;;;;;;5054631;28;19928;-65
2024/01/07 04:26:14;;;;;;;;;;;5.10;99.90;;;;;;5036562;28;20329;-66
2024/01/07 04:28:42;;;;;;;;;;;5.20;99.90;;;;;;5033594;28;19929;-66
2024/01/07 04:31:11;;;;;;;;;;;5.30;99.90;;;;;;5032541;28;19990;-66
2024/01/07 04:33:39;;;;;;;;;;;5.40;99.90;;;;;;5037846;28;20375;-66
2024/01/07 04:36:07;;;;;;;;;;;5.40;99.90;;;;;;5037197;28;19940;-67
2024/01/07 04:38:35;;;;;;;;;;;5.40;99.90;;;;;;5045566;28;19925;-66
2024/01/07 04:41:03;;;;;;;;;;;5.60;99.90;;;;;;5035970;28;20299;-65
2024/01/07 04:43:32;;;;;;;;;;;5.60;99.90;;;;;;5028186;28;20023;-67
2024/01/07 04:46:00;;;;;;;;;;;5.50;99.90;;;;;;5054190;28;20018;-67
2024/01/07 04:48:28;;;;;;;;;;;5.60;99.90;;;;;;5053783;28;19978;-66
2024/01/07 04:50:56;;;;;;;;;;;5.50;99.90;;;;;;5053771;28;19928;-67
2024/01/07 04:53:24;;;;;;;;;;;5.40;99.90;;;;;;5036154;28;19921;-67
2024/01/07 04:55:52;;;;;;;;;;;5.40;99.90;;;;;;5036068;28;19921;-67
2024/01/07 04:58:20;;;;;;;;;;;5.20;99.90;;;;;;5045697;28;19999;-68
2024/01/07 05:00:50;;;;;;;;;;;5.30;99.90;;;;;;5035360;28;19921;-68
2024/01/07 05:03:18;;;;;;;;;;;5.30;99.90;;;;;;5053765;28;19920;-67
2024/01/07 05:05:46;;;;;;;;;;;5.40;99.90;;;;;;5036045;28;19974;-67
2024/01/07 05:08:14;;;;;;;;;;;5.40;99.90;;;;;;5023572;28;19928;-67
2024/01/07 05:10:42;;;;;;;;;;;5.60;99.90;;;;;;5037211;28;19921;-66
2024/01/07 05:13:10;;;;;;;;;;;5.70;99.90;;;;;;5053459;28;19928;-67
2024/01/07 05:15:38;;;;;;;;;;;5.60;99.90;;;;;;5053306;28;19920;-67
2024/01/07 05:18:09;;;;;;;;;;;5.70;99.90;;;;;;5053544;28;19921;-67
2024/01/07 05:20:37;;;;;;;;;;;5.80;99.90;;;;;;5049411;28;20063;-68
2024/01/07 05:23:05;;;;;;;;;;;5.80;99.90;;;;;;5048551;28;19992;-67
2024/01/07 05:25:33;;;;;;;;;;;5.80;99.90;;;;;;5035132;28;20019;-67
2024/01/07 05:28:01;;;;;;;;;;;5.80;99.90;;;;;;5053423;28;19925;-67
2024/01/07 05:30:29;;;;;;;;;;;5.50;99.90;;;;;;5052913;28;19942;-67
2024/01/07 05:32:57;;;;;;;;;;;5.40;99.90;;;;;;5053346;28;19927;-66
2024/01/07 05:35:27;;;;;;;;;;;5.30;99.90;;;;;;5040894;28;19920;-65
2024/01/07 05:37:55;;;;;;;;;;;5.30;99.90;;;;;;5038048;28;20414;-66
2024/01/07 05:40:22;;;;;;;;;;;5.30;99.90;;;;;;5052374;28;20295;-66
2024/01/07 05:42:50;;;;;;;;;;;5.20;99.90;;;;;;5035217;28;19925;-65
2024/01/07 05:45:18;;;;;;;;;;;5.00;99.90;;;;;;5052897;28;19920;-67
2024/01/07 05:47:46;;;;;;;;;;;4.90;99.90;;;;;;5037381;28;19921;-65
2024/01/07 05:50:15;;;;;;;;;;;4.90;99.90;;;;;;5043632;28;20379;-65
2024/01/07 05:52:45;;;;;;;;;;;4.90;99.90;;;;;;5052591;28;19921;-66
2024/01/07 05:55:13;;;;;;;;;;;4.80;99.90;;;;;;5052834;28;20295;-66
2024/01/07 05:57:41;;;;;;;;;;;4.70;99.90;;;;;;5035127;28;19931;-67
2024/01/07 06:00:10;;;;;;;;;;;4.60;99.90;;;;;;5052329;28;20008;-65
2024/01/07 06:02:39;;;;;;;;;;;4.70;99.90;;;;;;5034599;28;19921;-67
2024/01/07 06:05:07;;;;;;;;;;;4.70;99.90;;;;;;5039966;28;19921;-67
2024/01/07 06:07:35;;;;;;;;;;;4.80;99.90;;;;;;5042512;28;20379;-66
2024/01/07 06:10:05;;;;;;;;;;;4.70;99.90;;;;;;5034448;28;19925;-66
2024/01/07 06:12:33;;;;;;;;;;;4.70;99.90;;;;;;5052145;28;19921;-66
2024/01/07 06:15:00;;;;;;;;;;;4.70;99.90;;;;;;5052144;28;19946;-66
2024/01/07 06:17:29;;;;;;;;;;;4.60;99.90;;;;;;5077026;22;19921;-70
2024/01/07 06:19:56;;;;;;;;;;;4.50;99.90;;;;;;5044172;28;19931;-73
2024/01/07 06:22:25;;;;;;;;;;;4.50;99.90;;;;;;5043856;28;20387;-72
2024/01/07 06:24:53;;;;;;;;;;;4.50;99.90;;;;;;5052179;28;19921;-74
2024/01/07 06:27:22;;;;;;;;;;;4.50;99.90;;;;;;5052192;28;19920;-73
2024/01/07 06:29:50;;;;;;;;;;;4.50;99.90;;;;;;5014476;28;19956;-72
2024/01/07 06:32:18;;;;;;;;;;;4.50;99.90;;;;;;5031131;28;19986;-72
2024/01/07 06:34:47;;;;;;;;;;;4.40;99.90;;;;;;5020505;28;19917;-72
2024/01/07 06:37:15;;;;;;;;;;;4.40;99.90;;;;;;5013999;28;20019;-75
2024/01/07 06:39:43;;;;;;;;;;;4.40;99.90;;;;;;5013562;28;19944;-74
2024/01/07 06:42:11;;;;;;;;;;;4.40;99.90;;;;;;5038767;28;19927;-74
2024/01/07 06:44:41;;;;;;;;;;;4.30;99.90;;;;;;5032926;28;19921;-72
2024/01/07 06:47:09;;;;;;;;;;;4.30;99.90;;;;;;5032032;28;19921;-70
2024/01/07 06:49:38;;;;;;;;;;;4.30;99.90;;;;;;5031593;28;19932;-71
2024/01/07 06:52:06;;;;;;;;;;;4.30;99.90;;;;;;5040297;28;19928;-72
2024/01/07 06:54:35;;;;;;;;;;;4.30;99.90;;;;;;5013859;28;20007;-72
2024/01/07 06:57:03;;;;;;;;;;;4.20;99.90;;;;;;5031768;28;19928;-71
2024/01/07 06:59:31;;;;;;;;;;;4.30;99.90;;;;;;5022182;28;20015;-72
2024/01/07 07:02:00;;;;;;;;;;;4.20;99.90;;;;;;5039763;28;19921;-72
2024/01/07 07:04:28;;;;;;;;;;;4.20;99.90;;;;;;5035875;28;20396;-71
2024/01/07 07:06:57;;;;;;;;;;;4.10;99.90;;;;;;5014555;28;19921;-72
2024/01/07 07:09:25;;;;;;;;;;;4.10;99.90;;;;;;5031578;28;19925;-72
2024/01/07 07:11:53;;;;;;;;;;;4.10;99.90;;;;;;5030079;28;20376;-72
2024/01/07 07:14:21;;;;;;;;;;;4.00;99.90;;;;;;5039682;28;20016;-71
2024/01/07 07:16:49;;;;;;;;;;;4.00;99.90;;;;;;5039377;28;19927;-72
2024/01/07 07:19:18;;;;;;;;;;;3.90;99.90;;;;;;5039334;28;19964;-71
2024/01/07 07:21:46;;;;;;;;;;;3.90;99.90;;;;;;5033428;28;19925;-72
2024/01/07 07:24:14;;;;;;;;;;;3.80;99.90;;;;;;5044580;28;19940;-72
2024/01/07 07:26:42;;;;;;;;;;;3.90;99.90;;;;;;5031379;28;20023;-73
2024/01/07 07:29:10;;;;;;;;;;;3.90;99.90;;;;;;5019440;28;19921;-74
2024/01/07 07:31:38;;;;;;;;;;;3.80;99.90;;;;;;5023275;28;20012;-71
2024/01/07 07:34:06;;;;;;;;;;;3.80;99.90;;;;;;5034048;28;19931;-71
2024/01/07 07:36:36;;;;;;;;;;;3.90;99.90;;;;;;5030980;28;20236;-71
2024/01/07 07:39:04;;;;;;;;;;;3.80;99.90;;;;;;5035972;28;20306;-71
2024/01/07 07:41:31;;;;;;;;;;;3.80;99.90;;;;;;5033787;28;19921;-71
2024/01/07 07:43:59;;;;;;;;;;;3.70;99.90;;;;;;5031253;28;20376;-71
2024/01/07 07:46:27;;;;;;;;;;;3.70;99.90;;;;;;5030885;28;19921;-71
2024/01/07 07:48:55;;;;;;;;;;;3.70;99.90;;;;;;5024759;28;19920;-72
2024/01/07 07:51:23;;;;;;;;;;;3.70;99.90;;;;;;5034690;28;19928;-73
2024/01/07 07:53:52;;;;;;;;;;;3.70;99.90;;;;;;5032352;28;20015;-71
2024/01/07 07:56:20;;;;;;;;;;;3.80;99.90;;;;;;5012603;28;19921;-71
2024/01/07 07:58:48;;;;;;;;;;;3.70;99.90;;;;;;5013105;28;20388;-71
2024/01/07 08:01:18;;;;;;;;;;;3.70;99.90;;;;;;5018950;28;19921;-71
2024/01/07 08:03:46;;;;;;;;;;;3.70;99.90;;;;;;5015161;28;19925;-72
2024/01/07 08:06:14;;;;;;;;;;;3.70;99.90;;;;;;5030785;28;20402;-71
2024/01/07 08:08:42;;;;;;;;;;;3.70;99.90;;;;;;5030677;28;20347;-70
2024/01/07 08:11:11;;;;;;;;;;;3.70;99.90;;;;;;5030110;28;19931;-71
2024/01/07 08:13:39;;;;;;;;;;;3.70;99.90;;;;;;5012961;28;20016;-71
2024/01/07 08:16:09;;;;;;;;;;;3.70;99.90;;;;;;5030918;28;19967;-72
2024/01/07 08:18:37;;;;;;;;;;;3.60;99.90;;;;;;5020754;28;19929;-71
2024/01/07 08:21:05;;;;;;;;;;;3.60;99.90;;;;;;5012568;28;19923;-73
2024/01/07 08:23:33;;;;;;;;;;;3.60;99.90;;;;;;5013270;28;20372;-72
2024/01/07 08:26:02;;;;;;;;;;;3.70;99.90;;;;;;5030814;28;20411;-74
2024/01/07 08:28:31;;;;;;;;;;;3.60;99.90;;;;;;5021062;28;19927;-73
2024/01/07 08:30:59;;;;;;;;;;;3.70;99.90;;;;;;5030639;28;20381;-73
2024/01/07 08:33:28;;;;;;;;;;;3.70;99.90;;;;;;5031220;28;19921;-73
2024/01/07 08:35:57;;;;;;;;;;;3.70;99.90;;;;;;5038474;28;19921;-71
2024/01/07 08:38:26;;;;;;;;;;;3.70;99.90;;;;;;5038926;28;19927;-71
2024/01/07 08:40:55;;;;;;;;;;;3.70;99.90;;;;;;5011894;28;19925;-71
2024/01/07 08:43:34;;;;;;;;;;;3.70;99.90;;;;;;5037036;28;20015;-71
2024/01/07 08:46:06;;;;;;;;;;;3.70;99.90;;;;;;5038021;28;19928;-74
2024/01/07 08:48:34;;;;;;;;;;;3.70;99.90;;;;;;5030379;28;19921;-74
2024/01/07 08:51:03;;;;;;;;;;;3.70;99.90;;;;;;5033280;28;19927;-73
2024/01/07 08:53:31;;;;;;;;;;;3.80;99.90;;;;;;5034809;28;19924;-75
2024/01/07 08:55:59;;;;;;;;;;;3.70;99.90;;;;;;5034063;28;19925;-73
2024/01/07 08:58:26;;;;;;;;;;;3.70;99.90;;;;;;5045245;28;19927;-73
2024/01/07 09:00:54;;;;;;;;;;;3.70;99.90;;;;;;5036991;28;19921;-74
2024/01/07 09:03:24;;;;;;;;;;;3.70;99.90;;;;;;5045725;28;19925;-72
2024/01/07 09:05:52;;;;;;;;;;;3.70;99.90;;;;;;5043027;28;19925;-73
2024/01/07 09:08:20;;;;;;;;;;;3.70;99.90;;;;;;5039448;28;19928;-72
2024/01/07 09:10:48;;;;;;;;;;;3.70;99.90;;;;;;5052896;28;19920;-70
2024/01/07 09:13:15;;;;;;;;;;;3.70;99.90;;;;;;5053222;28;20003;-71
2024/01/07 09:15:43;;;;;;;;;;;3.80;99.90;;;;;;5046047;28;19921;-72
2024/01/07 09:18:12;;;;;;;;;;;3.80;99.90;;;;;;5053527;28;19920;-71
2024/01/07 09:20:42;;;;;;;;;;;3.80;99.90;;;;;;5039011;28;19921;-72
2024/01/07 09:23:10;;;;;;;;;;;3.80;99.90;;;;;;5022456;28;20357;-72
2024/01/07 09:25:37;;;;;;;;;;;3.80;99.90;;;;;;5024783;28;20467;-72
2024/01/07 09:28:05;;;;;;;;;;;3.80;99.90;;;;;;5023277;28;19921;-71
2024/01/07 09:30:34;;;;;;;;;;;3.80;99.90;;;;;;5021606;28;19920;-75
2024/01/07 09:33:02;;;;;;;;;;;3.80;99.90;;;;;;5023475;28;19924;-73
2024/01/07 09:35:30;;;;;;;;;;;3.70;99.90;;;;;;5024400;28;19932;-72
2024/01/07 09:37:59;;;;;;;;;;;3.70;99.90;;;;;;5023686;28;19952;-71
2024/01/07 09:40:27;;;;;;;;;;;3.80;99.90;;;;;;5020798;28;20012;-70
2024/01/07 09:42:55;;;;;;;;;;;3.80;99.90;;;;;;5022850;28;19936;-69
2024/01/07 09:45:23;;;;;;;;;;;3.80;99.90;;;;;;5024360;28;20389;-72
2024/01/07 09:47:51;;;;;;;;;;;3.80;99.90;;;;;;5023697;28;19936;-70
2024/01/07 09:50:20;;;;;;;;;;;3.80;99.90;;;;;;5020317;28;19935;-70
2024/01/07 09:52:48;;;;;;;;;;;3.70;99.90;;;;;;5023289;28;19936;-74
2024/01/07 09:55:21;;;;;;;;;;;3.70;99.90;;;;;;5004651;28;19947;-69
2024/01/07 09:57:49;;;;;;;;;;;3.70;99.90;;;;;;5024036;28;19933;-70
2024/01/07 10:00:17;;;;;;;;;;;3.70;99.90;;;;;;5021045;28;20018;-72
2024/01/07 10:02:45;;;;;;;;;;;3.60;99.90;;;;;;5022654;28;19943;-70
2024/01/07 10:05:13;;;;;;;;;;;3.50;99.90;;;;;;5022422;28;19944;-71
2024/01/07 10:07:39;;;;;;;;;;;3.50;99.90;;;;;;5021151;28;20486;-72
2024/01/07 10:10:14;;;;;;;;;;;3.50;99.90;;;;;;5020593;28;20020;-74
2024/01/07 10:12:46;;;;;;;;;;;3.60;99.90;;;;;;5022447;28;19929;-74
2024/01/07 10:15:15;;;;;;;;;;;3.60;99.90;;;;;;5022596;28;19925;-72
2024/01/07 10:17:43;;;;;;;;;;;3.60;99.90;;;;;;5022298;28;19959;-69
2024/01/07 10:20:12;;;;;;;;;;;3.60;99.90;;;;;;5017988;28;19951;-73
2024/01/07 10:22:40;;;;;;;;;;;3.50;99.90;;;;;;5022107;28;19935;-72
2024/01/07 10:25:09;;;;;;;;;;;3.60;99.90;;;;;;5021822;28;19929;-71
2024/01/07 10:27:38;;;;;;;;;;;3.50;99.90;;;;;;5021518;28;19928;-71
2024/01/07 10:30:08;;;;;;;;;;;3.40;99.90;;;;;;5017453;28;19929;-71
2024/01/07 10:32:36;;;;;;;;;;;3.40;99.90;;;;;;5021362;28;20007;-71
2024/01/07 10:35:05;;;;;;;;;;;3.40;99.90;;;;;;5021158;28;19921;-70
2024/01/07 10:37:34;;;;;;;;;;;3.40;99.90;;;;;;5022049;28;19917;-75
2024/01/07 10:40:03;;;;;;;;;;;3.40;99.90;;;;;;5018004;28;19944;-74
2024/01/07 10:42:32;;;;;;;;;;;3.40;99.90;;;;;;5022019;28;20055;-72
2024/01/07 10:45:00;;;;;;;;;;;3.40;99.90;;;;;;5021894;28;19935;-73
2024/01/07 10:47:30;;;;;;;;;;;3.40;99.90;;;;;;5021830;28;19929;-74
2024/01/07 10:49:59;;;;;;;;;;;3.40;99.90;;;;;;5018367;28;19936;-76
2024/01/07 10:52:28;;;;;;;;;;;3.40;99.90;;;;;;5022762;28;19975;-72
2024/01/07 10:54:57;;;;;;;;;;;3.40;99.90;;;;;;5022409;28;19928;-75
2024/01/07 10:57:31;;;;;;;;;;;3.40;99.90;;;;;;5022611;28;19929;-71
2024/01/07 11:00:06;;;;;;;;;;;3.30;99.90;;;;;;5001103;28;19928;-74
2024/01/07 11:02:41;;;;;;;;;;;3.30;99.90;;;;;;5022785;28;20022;-76
2024/01/07 11:05:13;;;;;;;;;;;3.20;99.90;;;;;;5021742;28;19929;-73
2024/01/07 11:07:43;;;;;;;;;;;3.20;99.90;;;;;;5022072;28;19936;-73
2024/01/07 11:10:14;;;;;;;;;;;3.20;99.90;;;;;;5017982;28;19925;-74
2024/01/07 11:12:53;;;;;;;;;;;3.20;99.90;;;;;;5021599;28;20341;-72
2024/01/07 11:15:36;;;;;;;;;;;3.20;99.90;;;;;;5022174;28;19971;-74
2024/01/07 11:18:06;;;;;;;;;;;3.30;99.90;;;;;;5020291;28;19921;-76
2024/01/07 11:20:34;;;;;;;;;;;3.30;99.90;;;;;;5017316;28;19928;-76
2024/01/07 11:23:17;;;;;;;;;;;3.20;99.90;;;;;;5021541;28;19932;-75
2024/01/07 11:25:45;;;;;;;;;;;3.20;99.90;;;;;;5021516;28;19940;-72
2024/01/07 11:28:13;;;;;;;;;;;3.20;99.90;;;;;;5019727;28;20423;-71
2024/01/07 11:30:41;;;;;;;;;;;3.20;99.90;;;;;;5016850;28;19929;-76
2024/01/07 11:33:12;;;;;;;;;;;3.30;99.90;;;;;;5020516;28;21337;-74
2024/01/07 11:35:54;;;;;;;;;;;3.40;99.90;;;;;;5020987;28;19936;-72
2024/01/07 11:38:22;;;;;;;;;;;3.40;99.90;;;;;;5020162;28;19929;-72
2024/01/07 11:40:51;;;;;;;;;;;3.40;99.90;;;;;;5017088;28;19928;-73
2024/01/07 11:43:19;;;;;;;;;;;3.40;99.90;;;;;;5020413;28;19986;-75
2024/01/07 11:45:48;;;;;;;;;;;3.40;99.90;;;;;;5014887;28;19929;-74
2024/01/07 11:48:17;;;;;;;;;;;3.40;99.90;;;;;;5015525;28;19929;-69
2024/01/07 11:50:45;;;;;;;;;;;3.40;99.90;;;;;;5009110;28;19975;-74
2024/01/07 11:53:16;;;;;;;;;;;3.50;99.90;;;;;;5014366;28;19929;-71
2024/01/07 11:55:45;;;;;;;;;;;3.50;99.90;;;;;;5015940;28;19929;-72
2024/01/07 11:58:16;;;;;;;;;;;3.50;99.90;;;;;;5014758;28;19953;-75
2024/01/07 12:00:44;;;;;;;;;;;3.50;99.90;;;;;;5015011;28;19935;-71
2024/01/07 12:03:13;;;;;;;;;;;3.40;99.90;;;;;;5015704;28;20023;-71
2024/01/07 12:05:43;;;;;;;;;;;3.40;99.90;;;;;;5017169;28;19999;-74
2024/01/07 12:08:11;;;;;;;;;;;3.30;99.90;;;;;;5016343;28;19940;-72
2024/01/07 12:10:39;;;;;;;;;;;3.30;99.90;;;;;;5014329;28;19925;-70
2024/01/07 12:13:08;;;;;;;;;;;3.20;99.90;;;;;;5016622;28;19929;-74
2024/01/07 12:15:36;;;;;;;;;;;3.10;99.90;;;;;;5017129;28;19916;-69
2024/01/07 12:18:05;;;;;;;;;;;3.20;99.90;;;;;;4998818;28;20011;-73
2024/01/07 12:20:33;;;;;;;;;;;3.10;99.90;;;;;;5013378;28;19916;-71
2024/01/07 12:23:08;;;;;;;;;;;3.10;99.90;;;;;;5017330;28;19929;-69
2024/01/07 12:25:36;;;;;;;;;;;3.00;99.90;;;;;;5017422;28;19928;-71
2024/01/07 12:28:07;;;;;;;;;;;2.90;99.90;;;;;;5017531;28;19960;-76
2024/01/07 12:30:36;;;;;;;;;;;2.80;99.90;;;;;;5014504;28;19917;-73
2024/01/07 12:33:05;;;;;;;;;;;2.80;99.90;;;;;;5021083;28;19991;-75
2024/01/07 12:35:34;;;;;;;;;;;2.90;99.90;;;;;;5021924;28;19924;-69
2024/01/07 12:38:02;;;;;;;;;;;2.90;99.90;;;;;;5019249;28;19940;-70
2024/01/07 12:40:31;;;;;;;;;;;2.80;99.90;;;;;;5017476;28;20059;-71
2024/01/07 12:42:59;;;;;;;;;;;2.80;99.90;;;;;;5047375;22;19935;-65
2024/01/07 12:45:27;;;;;;;;;;;2.80;99.90;;;;;;5034884;28;20505;-66
2024/01/07 12:47:58;;;;;;;;;;;2.80;99.90;;;;;;5034122;28;19998;-66
2024/01/07 12:50:27;;;;;;;;;;;2.70;99.90;;;;;;5030666;28;19929;-65
2024/01/07 12:52:56;;;;;;;;;;;2.70;99.90;;;;;;5033869;28;19935;-64
2024/01/07 12:55:24;;;;;;;;;;;2.70;99.90;;;;;;5033945;28;19969;-65
2024/01/07 12:57:54;;;;;;;;;;;2.60;99.90;;;;;;5031982;28;19928;-65
2024/01/07 13:00:23;;;;;;;;;;;2.70;99.90;;;;;;5035075;28;20334;-65
2024/01/07 13:02:50;;;;;;;;;;;2.70;99.90;;;;;;5032380;28;20397;-65
2024/01/07 13:05:18;;;;;;;;;;;2.80;99.90;;;;;;5032651;28;19929;-64
2024/01/07 13:07:47;;;;;;;;;;;2.70;99.90;;;;;;5031878;28;19968;-65
2024/01/07 13:10:15;;;;;;;;;;;2.70;99.90;;;;;;5031097;28;20021;-66
2024/01/07 13:12:43;;;;;;;;;;;2.60;99.90;;;;;;5032203;28;20578;-66
2024/01/07 13:15:18;;;;;;;;;;;2.60;99.90;;;;;;5032571;28;19929;-64
2024/01/07 13:17:46;;;;;;;;;;;2.60;99.90;;;;;;5032188;28;20006;-66
2024/01/07 13:20:14;;;;;;;;;;;2.50;99.90;;;;;;5029913;28;19936;-65
2024/01/07 13:22:43;;;;;;;;;;;2.50;99.90;;;;;;5031683;28;19950;-65
2024/01/07 13:25:10;;;;;;;;;;;2.50;99.90;;;;;;5033009;28;19935;-64
2024/01/07 13:27:38;;;;;;;;;;;2.40;99.90;;;;;;5032861;28;19928;-63
2024/01/07 13:30:07;;;;;;;;;;;2.40;99.90;;;;;;5031192;28;19927;-64
2024/01/07 13:32:37;;;;;;;;;;;2.40;99.90;;;;;;5030141;28;20368;-64
2024/01/07 13:35:06;;;;;;;;;;;2.30;99.90;;;;;;5032612;28;19924;-65
2024/01/07 13:37:34;;;;;;;;;;;2.30;99.90;;;;;;5030360;28;19917;-65
2024/01/07 13:40:03;;;;;;;;;;;2.30;99.90;;;;;;5032839;28;19928;-65
2024/01/07 13:42:31;;;;;;;;;;;2.30;99.90;;;;;;5031605;28;19932;-64
2024/01/07 13:44:59;;;;;;;;;;;2.30;99.90;;;;;;5030107;28;19920;-63
2024/01/07 13:47:27;;;;;;;;;;;2.30;99.90;;;;;;5031279;28;20777;-64
2024/01/07 13:49:57;;;;;;;;;;;2.30;99.90;;;;;;5028520;28;19928;-64
2024/01/07 13:52:24;;;;;;;;;;;2.30;99.90;;;;;;5032013;28;20327;-65
2024/01/07 13:54:52;;;;;;;;;;;2.30;99.90;;;;;;5032111;28;19979;-66
2024/01/07 13:57:20;;;;;;;;;;;2.30;99.90;;;;;;5031448;28;20169;-65
2024/01/07 13:59:48;;;;;;;;;;;2.30;99.90;;;;;;5032071;28;20390;-65
2024/01/07 14:02:19;;;;;;;;;;;2.20;99.90;;;;;;5031571;28;19936;-65
2024/01/07 14:04:48;;;;;;;;;;;2.20;99.90;;;;;;5032562;28;20910;-65
2024/01/07 14:07:17;;;;;;;;;;;2.10;99.90;;;;;;5034844;28;19929;-64
2024/01/07 14:09:45;;;;;;;;;;;2.20;99.90;;;;;;5031912;28;19924;-64
2024/01/07 14:12:14;;;;;;;;;;;2.10;99.90;;;;;;5032479;28;20019;-65
2024/01/07 14:14:41;;;;;;;;;;;2.00;99.90;;;;;;5033791;28;19981;-65
2024/01/07 14:17:09;;;;;;;;;;;2.00;99.90;;;;;;5033059;28;19920;-65
2024/01/07 14:19:37;;;;;;;;;;;1.90;99.90;;;;;;5029901;28;21013;-64
2024/01/07 14:22:05;;;;;;;;;;;1.90;99.90;;;;;;5030658;28;19921;-64
2024/01/07 14:24:34;;;;;;;;;;;1.90;99.90;;;;;;5030613;28;19921;-63
2024/01/07 14:27:02;;;;;;;;;;;1.90;99.90;;;;;;5032238;28;19921;-64
2024/01/07 14:29:29;;;;;;;;;;;1.90;99.90;;;;;;5031964;28;20550;-63
2024/01/07 14:31:57;;;;;;;;;;;1.90;99.90;;;;;;5028199;28;19935;-65
2024/01/07 14:34:25;;;;;;;;;;;1.80;99.90;;;;;;5028323;28;19929;-65
2024/01/07 14:36:53;;;;;;;;;;;1.70;99.90;;;;;;5029264;28;19978;-65
2024/01/07 14:39:20;;;;;;;;;;;1.60;99.90;;;;;;5031146;28;20189;-66